createdAt,value
2022-11-09T00:06:00.255Z,23.76
2022-11-09T00:16:05.771Z,23.69
2022-11-09T00:26:11.390Z,23.65
2022-11-09T00:36:16.778Z,23.62
2022-11-09T00:46:21.954Z,23.59
2022-11-09T00:56:27.482Z,23.59
2022-11-09T01:06:34.114Z,23.59
2022-11-09T01:16:39.570Z,23.56
2022-11-09T01:26:44.991Z,23.52
2022-11-09T01:36:50.250Z,23.49
2022-11-09T01:46:55.331Z,23.51
2022-11-09T01:57:00.372Z,23.49
2022-11-09T02:07:05.862Z,23.49
2022-11-09T02:17:11.332Z,23.45
2022-11-09T02:27:16.825Z,23.44
2022-11-09T02:37:22.027Z,23.43
2022-11-09T02:47:27.581Z,23.43
2022-11-09T02:57:32.765Z,23.44
2022-11-09T03:07:38.198Z,23.39
2022-11-09T03:17:43.461Z,23.38
2022-11-09T03:27:48.546Z,23.39
2022-11-09T03:37:54.070Z,23.39
2022-11-09T03:47:59.100Z,23.38
2022-11-09T03:58:04.321Z,23.36
2022-11-09T04:08:09.484Z,23.35
2022-11-09T04:18:14.940Z,23.34
2022-11-09T04:28:19.926Z,23.34
2022-11-09T04:38:24.677Z,23.36
2022-11-09T04:48:29.856Z,23.33
2022-11-09T04:58:34.786Z,23.32
2022-11-09T05:08:39.936Z,23.31
2022-11-09T05:18:45.084Z,23.31
2022-11-09T05:28:50.383Z,23.29
2022-11-09T05:38:55.791Z,23.30
2022-11-09T05:49:01.337Z,23.28
2022-11-09T05:59:06.602Z,23.26
2022-11-09T06:09:12.104Z,23.29
2022-11-09T06:19:17.112Z,23.28
2022-11-09T06:29:22.547Z,23.27
2022-11-09T06:39:27.458Z,23.24
2022-11-09T06:49:32.558Z,23.25
2022-11-09T06:59:37.836Z,23.23
2022-11-09T07:09:42.938Z,23.27
2022-11-09T07:19:48.171Z,23.26
2022-11-09T07:29:53.700Z,23.26
2022-11-09T07:39:58.917Z,23.26
2022-11-09T07:50:03.803Z,23.25
2022-11-09T08:00:09.035Z,23.24
2022-11-09T08:10:14.429Z,23.32
2022-11-09T08:20:19.825Z,23.37
2022-11-09T08:30:25.087Z,23.43
2022-11-09T08:40:30.516Z,23.47
2022-11-09T08:50:35.563Z,23.57
2022-11-09T09:00:41.036Z,23.54
2022-11-09T09:10:46.336Z,23.51
2022-11-09T09:20:52.141Z,23.40
2022-11-09T09:30:57.514Z,23.44
2022-11-09T09:41:02.723Z,23.48
2022-11-09T09:51:10.844Z,23.47
2022-11-09T10:01:16.157Z,23.47
2022-11-09T10:11:21.458Z,23.60
2022-11-09T10:21:26.787Z,23.70
2022-11-09T10:31:32.035Z,23.77
2022-11-09T10:41:37.325Z,23.83
2022-11-09T10:51:42.720Z,23.70
2022-11-09T11:01:48.067Z,23.74
2022-11-09T11:11:53.569Z,23.80
2022-11-09T11:21:59.205Z,23.82
2022-11-09T11:32:04.325Z,23.82
2022-11-09T11:42:09.535Z,23.89
2022-11-09T11:52:14.893Z,23.86
2022-11-09T12:02:20.496Z,23.94
2022-11-09T12:12:25.593Z,24.01
2022-11-09T12:22:31.120Z,23.95
2022-11-09T12:32:36.314Z,23.95
2022-11-09T12:42:41.658Z,23.99
2022-11-09T12:52:47.209Z,24.08
2022-11-09T13:02:52.815Z,24.12
2022-11-09T13:12:58.003Z,24.17
2022-11-09T13:23:03.012Z,24.21
2022-11-09T13:33:08.205Z,24.23
2022-11-09T13:43:13.675Z,24.21
2022-11-09T13:53:19.094Z,24.25
2022-11-09T14:03:23.992Z,24.20
2022-11-09T14:13:29.306Z,24.21
2022-11-09T14:23:34.351Z,24.14
2022-11-09T14:33:39.632Z,24.16
2022-11-09T14:43:45.090Z,24.14
2022-11-09T14:53:51.934Z,24.24
2022-11-09T15:03:57.322Z,24.21
2022-11-09T15:14:03.366Z,24.16
2022-11-09T15:24:08.487Z,24.15
2022-11-09T15:34:13.813Z,24.11
2022-11-09T15:44:19.027Z,24.11
2022-11-09T15:54:24.062Z,24.09
2022-11-09T16:04:29.689Z,24.05
2022-11-09T16:14:34.677Z,24.03
2022-11-09T16:24:40.141Z,23.99
2022-11-09T16:34:53.451Z,24.02
2022-11-09T16:44:55.545Z,24.00
2022-11-09T16:55:00.568Z,23.97
2022-11-09T17:05:06.093Z,23.93
2022-11-09T17:15:11.236Z,23.92
2022-11-09T17:25:16.182Z,23.94
2022-11-09T17:35:21.189Z,23.94
2022-11-09T17:45:26.639Z,23.92
2022-11-09T17:55:32.223Z,24.05
2022-11-09T18:05:37.811Z,24.09
2022-11-09T18:15:42.739Z,24.16
2022-11-09T18:25:47.987Z,24.23
2022-11-09T18:35:53.230Z,24.21
2022-11-09T18:45:58.393Z,24.16
2022-11-09T18:56:06.757Z,24.14
2022-11-09T19:06:12.305Z,24.21
2022-11-09T19:16:17.682Z,24.27
2022-11-09T19:26:23.086Z,24.30
2022-11-09T19:36:31.033Z,24.32
2022-11-09T19:46:36.931Z,24.31
2022-11-09T19:56:42.694Z,24.30
2022-11-09T20:06:47.965Z,24.23
2022-11-09T20:16:53.218Z,24.24
2022-11-09T20:26:58.635Z,24.24
2022-11-09T20:37:03.451Z,24.21
2022-11-09T20:47:08.706Z,24.15
2022-11-09T20:57:13.874Z,24.12
2022-11-09T21:07:19.112Z,24.10
2022-11-09T21:17:24.392Z,24.09
2022-11-09T21:27:29.611Z,24.08
2022-11-09T21:37:34.792Z,24.06
2022-11-09T21:47:40.102Z,24.02
2022-11-09T21:57:45.215Z,24.02
2022-11-09T22:07:50.368Z,24.06
2022-11-09T22:17:55.620Z,24.06
2022-11-09T22:28:00.845Z,24.06
2022-11-09T22:38:06.213Z,24.03
2022-11-09T22:48:11.145Z,24.02
2022-11-09T22:58:16.941Z,24.02
2022-11-09T23:08:22.212Z,24.03
2022-11-09T23:18:27.664Z,23.99
2022-11-09T23:28:33.335Z,23.97
2022-11-09T23:38:38.603Z,23.97
2022-11-09T23:48:43.784Z,23.95
2022-11-09T23:58:51.654Z,23.97
